sensor_id;sensor_type;location;lat;lon;timestamp;pressure;altitude;pressure_sealevel;temperature;humidity
57606;BME280;43430;48.204;11.556;2022-09-03T00:01:31;95717.44;;;13.47;73.36
57606;BME280;43430;48.204;11.556;2022-09-03T00:04:09;95705.00;;;13.47;73.46
57606;BME280;43430;48.204;11.556;2022-09-03T00:06:44;95705.78;;;13.48;73.01
57606;BME280;43430;48.204;11.556;2022-09-03T00:09:24;95714.03;;;13.51;73.64
57606;BME280;43430;48.204;11.556;2022-09-03T00:12:12;95717.25;;;13.53;72.76
57606;BME280;43430;48.204;11.556;2022-09-03T00:14:54;95720.13;;;13.52;73.22
57606;BME280;43430;48.204;11.556;2022-09-03T00:17:23;95715.78;;;13.41;73.17
57606;BME280;43430;48.204;11.556;2022-09-03T00:20:06;95709.38;;;13.37;73.61
57606;BME280;43430;48.204;11.556;2022-09-03T00:22:38;95721.56;;;13.38;73.56
57606;BME280;43430;48.204;11.556;2022-09-03T00:25:09;95723.66;;;13.36;73.85
57606;BME280;43430;48.204;11.556;2022-09-03T00:27:39;95715.63;;;13.30;73.99
57606;BME280;43430;48.204;11.556;2022-09-03T00:38:11;95710.66;;;13.17;74.31
57606;BME280;43430;48.204;11.556;2022-09-03T00:49:32;95703.16;;;13.09;75.03
57606;BME280;43430;48.204;11.556;2022-09-03T00:55:12;95709.41;;;13.03;75.66
57606;BME280;43430;48.204;11.556;2022-09-03T01:00:14;95706.69;;;12.98;76.01
57606;BME280;43430;48.204;11.556;2022-09-03T01:02:50;95707.81;;;13.02;76.33
57606;BME280;43430;48.204;11.556;2022-09-03T01:05:26;95708.63;;;13.02;76.39
57606;BME280;43430;48.204;11.556;2022-09-03T01:13:34;95713.28;;;12.95;77.24
57606;BME280;43430;48.204;11.556;2022-09-03T01:16:17;95717.78;;;12.95;77.62
57606;BME280;43430;48.204;11.556;2022-09-03T01:24:12;95714.78;;;13.08;77.62
57606;BME280;43430;48.204;11.556;2022-09-03T01:27:04;95712.69;;;13.10;77.37
57606;BME280;43430;48.204;11.556;2022-09-03T01:29:49;95702.56;;;13.07;77.19
57606;BME280;43430;48.204;11.556;2022-09-03T01:35:05;95700.94;;;13.01;78.53
57606;BME280;43430;48.204;11.556;2022-09-03T01:45:17;95712.47;;;12.95;78.51
57606;BME280;43430;48.204;11.556;2022-09-03T01:50:35;95715.03;;;12.90;79.37
57606;BME280;43430;48.204;11.556;2022-09-03T01:53:09;95712.16;;;12.91;79.63
57606;BME280;43430;48.204;11.556;2022-09-03T01:58:17;95699.81;;;12.80;80.35
57606;BME280;43430;48.204;11.556;2022-09-03T02:00:49;95706.88;;;12.74;80.58
57606;BME280;43430;48.204;11.556;2022-09-03T02:03:17;95703.66;;;12.72;80.18
57606;BME280;43430;48.204;11.556;2022-09-03T02:05:42;95697.56;;;12.72;80.72
57606;BME280;43430;48.204;11.556;2022-09-03T02:08:10;95696.69;;;12.66;80.88
57606;BME280;43430;48.204;11.556;2022-09-03T02:10:42;95705.28;;;12.56;81.51
57606;BME280;43430;48.204;11.556;2022-09-03T02:13:12;95702.06;;;12.54;82.65
57606;BME280;43430;48.204;11.556;2022-09-03T02:15:42;95695.25;;;12.58;81.88
57606;BME280;43430;48.204;11.556;2022-09-03T02:18:15;95700.00;;;12.56;81.85
57606;BME280;43430;48.204;11.556;2022-09-03T02:20:42;95695.97;;;12.54;82.02
57606;BME280;43430;48.204;11.556;2022-09-03T02:23:07;95691.50;;;12.54;82.49
57606;BME280;43430;48.204;11.556;2022-09-03T02:25:38;95687.72;;;12.50;81.92
57606;BME280;43430;48.204;11.556;2022-09-03T02:28:06;95697.41;;;12.45;82.48
57606;BME280;43430;48.204;11.556;2022-09-03T02:30:32;95697.81;;;12.37;83.00
57606;BME280;43430;48.204;11.556;2022-09-03T02:32:58;95697.97;;;12.30;84.03
57606;BME280;43430;48.204;11.556;2022-09-03T02:35:23;95707.19;;;12.27;83.99
57606;BME280;43430;48.204;11.556;2022-09-03T02:37:49;95710.28;;;12.24;83.77
57606;BME280;43430;48.204;11.556;2022-09-03T02:40:14;95710.69;;;12.16;84.01
57606;BME280;43430;48.204;11.556;2022-09-03T02:42:41;95718.50;;;12.11;84.76
57606;BME280;43430;48.204;11.556;2022-09-03T02:45:19;95718.78;;;12.09;84.85
57606;BME280;43430;48.204;11.556;2022-09-03T02:47:51;95712.91;;;12.07;84.84
57606;BME280;43430;48.204;11.556;2022-09-03T02:50:18;95719.81;;;12.08;85.38
57606;BME280;43430;48.204;11.556;2022-09-03T02:52:43;95708.44;;;12.08;85.35
57606;BME280;43430;48.204;11.556;2022-09-03T02:55:09;95713.88;;;12.01;85.63
57606;BME280;43430;48.204;11.556;2022-09-03T02:57:34;95707.69;;;11.96;86.10
57606;BME280;43430;48.204;11.556;2022-09-03T03:00:00;95708.81;;;12.00;85.89
57606;BME280;43430;48.204;11.556;2022-09-03T03:02:25;95710.19;;;12.02;86.01
57606;BME280;43430;48.204;11.556;2022-09-03T03:04:50;95702.47;;;12.01;86.31
57606;BME280;43430;48.204;11.556;2022-09-03T03:07:16;95695.59;;;12.00;86.68
57606;BME280;43430;48.204;11.556;2022-09-03T03:09:41;95696.66;;;11.99;86.51
57606;BME280;43430;48.204;11.556;2022-09-03T03:12:06;95699.19;;;11.94;87.02
57606;BME280;43430;48.204;11.556;2022-09-03T03:14:34;95698.53;;;11.86;88.11
57606;BME280;43430;48.204;11.556;2022-09-03T03:16:59;95706.56;;;11.92;87.55
57606;BME280;43430;48.204;11.556;2022-09-03T03:19:25;95709.66;;;11.88;87.24
57606;BME280;43430;48.204;11.556;2022-09-03T03:21:50;95709.66;;;11.88;87.54
57606;BME280;43430;48.204;11.556;2022-09-03T03:24:15;95719.09;;;11.84;87.26
57606;BME280;43430;48.204;11.556;2022-09-03T03:26:41;95714.16;;;11.88;87.39
57606;BME280;43430;48.204;11.556;2022-09-03T03:29:06;95704.50;;;11.82;87.96
57606;BME280;43430;48.204;11.556;2022-09-03T03:31:32;95706.69;;;11.73;88.30
57606;BME280;43430;48.204;11.556;2022-09-03T03:33:59;95704.53;;;11.70;88.67
57606;BME280;43430;48.204;11.556;2022-09-03T03:36:29;95704.09;;;11.61;89.34
57606;BME280;43430;48.204;11.556;2022-09-03T03:38:56;95710.50;;;11.65;89.24
57606;BME280;43430;48.204;11.556;2022-09-03T03:41:27;95712.94;;;11.67;89.24
57606;BME280;43430;48.204;11.556;2022-09-03T03:43:54;95713.50;;;11.69;89.48
57606;BME280;43430;48.204;11.556;2022-09-03T03:46:21;95711.91;;;11.68;90.15
57606;BME280;43430;48.204;11.556;2022-09-03T03:48:50;95715.13;;;11.70;89.15
57606;BME280;43430;48.204;11.556;2022-09-03T03:51:17;95715.00;;;11.65;89.24
57606;BME280;43430;48.204;11.556;2022-09-03T03:53:43;95715.47;;;11.62;89.77
57606;BME280;43430;48.204;11.556;2022-09-03T03:56:12;95711.44;;;11.59;90.29
57606;BME280;43430;48.204;11.556;2022-09-03T03:58:38;95710.66;;;11.59;90.61
57606;BME280;43430;48.204;11.556;2022-09-03T04:03:34;95712.81;;;11.62;91.18
57606;BME280;43430;48.204;11.556;2022-09-03T04:06:00;95708.25;;;11.57;91.16
57606;BME280;43430;48.204;11.556;2022-09-03T04:08:26;95714.09;;;11.59;91.04
57606;BME280;43430;48.204;11.556;2022-09-03T04:10:52;95702.84;;;11.64;91.10
57606;BME280;43430;48.204;11.556;2022-09-03T04:13:17;95705.63;;;11.57;90.63
57606;BME280;43430;48.204;11.556;2022-09-03T04:15:43;95706.66;;;11.56;91.46
57606;BME280;43430;48.204;11.556;2022-09-03T04:18:09;95700.81;;;11.54;91.39
57606;BME280;43430;48.204;11.556;2022-09-03T04:20:35;95706.31;;;11.53;91.63
57606;BME280;43430;48.204;11.556;2022-09-03T04:23:00;95704.81;;;11.57;91.42
57606;BME280;43430;48.204;11.556;2022-09-03T04:25:26;95707.13;;;11.53;91.98
57606;BME280;43430;48.204;11.556;2022-09-03T04:27:51;95716.41;;;11.56;92.27
57606;BME280;43430;48.204;11.556;2022-09-03T04:30:17;95725.94;;;11.57;93.15
57606;BME280;43430;48.204;11.556;2022-09-03T04:32:43;95728.91;;;11.60;92.47
57606;BME280;43430;48.204;11.556;2022-09-03T04:35:18;95728.22;;;11.65;91.66
57606;BME280;43430;48.204;11.556;2022-09-03T04:37:45;95729.19;;;11.76;91.24
57606;BME280;43430;48.204;11.556;2022-09-03T04:40:10;95734.25;;;11.77;90.73
57606;BME280;43430;48.204;11.556;2022-09-03T04:42:36;95734.03;;;11.79;90.33
57606;BME280;43430;48.204;11.556;2022-09-03T04:45:01;95742.41;;;11.87;90.11
57606;BME280;43430;48.204;11.556;2022-09-03T04:47:26;95735.16;;;11.95;89.25
57606;BME280;43430;48.204;11.556;2022-09-03T04:49:52;95732.25;;;11.96;89.38
57606;BME280;43430;48.204;11.556;2022-09-03T04:52:19;95740.31;;;12.01;89.67
57606;BME280;43430;48.204;11.556;2022-09-03T04:54:44;95745.91;;;12.05;89.17
57606;BME280;43430;48.204;11.556;2022-09-03T04:57:10;95744.16;;;12.10;88.83
57606;BME280;43430;48.204;11.556;2022-09-03T04:59:35;95752.66;;;12.13;87.66
57606;BME280;43430;48.204;11.556;2022-09-03T05:02:01;95749.75;;;12.14;88.70
57606;BME280;43430;48.204;11.556;2022-09-03T05:04:26;95756.44;;;12.17;87.69
57606;BME280;43430;48.204;11.556;2022-09-03T05:06:52;95752.97;;;12.16;88.36
57606;BME280;43430;48.204;11.556;2022-09-03T05:09:17;95752.59;;;12.24;87.90
57606;BME280;43430;48.204;11.556;2022-09-03T05:11:42;95751.31;;;12.27;88.68
57606;BME280;43430;48.204;11.556;2022-09-03T05:14:09;95754.63;;;12.34;88.00
57606;BME280;43430;48.204;11.556;2022-09-03T05:16:37;95759.69;;;12.35;87.63
57606;BME280;43430;48.204;11.556;2022-09-03T05:19:02;95755.50;;;12.40;87.51
57606;BME280;43430;48.204;11.556;2022-09-03T05:21:33;95761.66;;;12.28;88.63
57606;BME280;43430;48.204;11.556;2022-09-03T05:24:00;95756.69;;;12.15;88.94
57606;BME280;43430;48.204;11.556;2022-09-03T05:26:31;95770.44;;;12.17;88.79
57606;BME280;43430;48.204;11.556;2022-09-03T05:28:59;95785.44;;;12.00;89.92
57606;BME280;43430;48.204;11.556;2022-09-03T05:31:26;95784.84;;;12.09;90.43
57606;BME280;43430;48.204;11.556;2022-09-03T05:33:54;95788.06;;;12.11;89.35
57606;BME280;43430;48.204;11.556;2022-09-03T05:36:24;95801.69;;;12.20;89.11
57606;BME280;43430;48.204;11.556;2022-09-03T05:38:50;95802.22;;;12.05;89.20
57606;BME280;43430;48.204;11.556;2022-09-03T05:41:18;95787.44;;;12.21;89.40
57606;BME280;43430;48.204;11.556;2022-09-03T05:43:47;95794.00;;;12.47;86.50
57606;BME280;43430;48.204;11.556;2022-09-03T05:46:15;95784.13;;;12.43;86.32
57606;BME280;43430;48.204;11.556;2022-09-03T05:48:42;95773.72;;;12.53;86.73
57606;BME280;43430;48.204;11.556;2022-09-03T05:51:13;95781.50;;;12.59;85.56
57606;BME280;43430;48.204;11.556;2022-09-03T05:53:43;95785.13;;;12.70;84.51
57606;BME280;43430;48.204;11.556;2022-09-03T05:56:11;95782.56;;;12.75;83.89
57606;BME280;43430;48.204;11.556;2022-09-03T05:58:43;95787.28;;;12.90;83.37
57606;BME280;43430;48.204;11.556;2022-09-03T06:01:20;95785.38;;;13.02;83.40
57606;BME280;43430;48.204;11.556;2022-09-03T06:03:52;95779.50;;;13.00;82.61
57606;BME280;43430;48.204;11.556;2022-09-03T06:06:19;95779.28;;;13.02;82.89
57606;BME280;43430;48.204;11.556;2022-09-03T06:08:53;95779.13;;;13.09;82.33
57606;BME280;43430;48.204;11.556;2022-09-03T06:11:19;95776.47;;;13.09;82.63
57606;BME280;43430;48.204;11.556;2022-09-03T06:13:45;95786.81;;;13.10;82.31
57606;BME280;43430;48.204;11.556;2022-09-03T06:16:12;95793.06;;;13.04;82.95
57606;BME280;43430;48.204;11.556;2022-09-03T06:18:37;95784.47;;;13.14;83.40
57606;BME280;43430;48.204;11.556;2022-09-03T06:21:05;95791.72;;;13.18;83.75
57606;BME280;43430;48.204;11.556;2022-09-03T06:23:32;95781.28;;;13.28;82.60
57606;BME280;43430;48.204;11.556;2022-09-03T06:26:06;95778.78;;;13.39;81.63
57606;BME280;43430;48.204;11.556;2022-09-03T06:28:33;95782.47;;;13.38;82.80
57606;BME280;43430;48.204;11.556;2022-09-03T06:30:59;95776.94;;;13.39;82.27
57606;BME280;43430;48.204;11.556;2022-09-03T06:33:26;95788.69;;;13.48;81.97
57606;BME280;43430;48.204;11.556;2022-09-03T06:35:55;95785.88;;;13.55;81.66
57606;BME280;43430;48.204;11.556;2022-09-03T06:38:28;95785.38;;;13.58;80.90
57606;BME280;43430;48.204;11.556;2022-09-03T06:40:59;95784.22;;;13.49;81.35
57606;BME280;43430;48.204;11.556;2022-09-03T06:43:30;95786.59;;;13.67;81.74
57606;BME280;43430;48.204;11.556;2022-09-03T06:46:05;95799.38;;;13.75;81.59
57606;BME280;43430;48.204;11.556;2022-09-03T06:48:32;95800.75;;;13.78;81.66
57606;BME280;43430;48.204;11.556;2022-09-03T06:51:00;95799.81;;;13.67;80.72
57606;BME280;43430;48.204;11.556;2022-09-03T06:53:27;95817.66;;;13.55;83.26
57606;BME280;43430;48.204;11.556;2022-09-03T06:55:57;95821.38;;;13.54;83.06
57606;BME280;43430;48.204;11.556;2022-09-03T06:58:27;95825.75;;;13.65;83.77
57606;BME280;43430;48.204;11.556;2022-09-03T07:00:52;95827.38;;;13.66;82.73
57606;BME280;43430;48.204;11.556;2022-09-03T07:03:18;95818.38;;;13.67;82.57
57606;BME280;43430;48.204;11.556;2022-09-03T07:05:44;95817.22;;;13.80;83.84
57606;BME280;43430;48.204;11.556;2022-09-03T07:08:10;95818.28;;;13.62;82.42
57606;BME280;43430;48.204;11.556;2022-09-03T07:10:36;95815.72;;;13.67;84.68
57606;BME280;43430;48.204;11.556;2022-09-03T07:13:02;95811.47;;;13.66;83.15
57606;BME280;43430;48.204;11.556;2022-09-03T07:15:28;95805.25;;;13.77;85.02
57606;BME280;43430;48.204;11.556;2022-09-03T07:17:53;95812.16;;;13.78;82.44
57606;BME280;43430;48.204;11.556;2022-09-03T07:20:19;95815.13;;;13.82;84.90
57606;BME280;43430;48.204;11.556;2022-09-03T07:22:45;95818.25;;;13.79;83.34
57606;BME280;43430;48.204;11.556;2022-09-03T07:25:10;95820.84;;;13.74;85.15
57606;BME280;43430;48.204;11.556;2022-09-03T07:27:35;95815.13;;;13.82;83.92
57606;BME280;43430;48.204;11.556;2022-09-03T07:30:01;95823.38;;;13.86;84.76
57606;BME280;43430;48.204;11.556;2022-09-03T07:32:27;95823.94;;;13.88;84.73
57606;BME280;43430;48.204;11.556;2022-09-03T07:34:53;95825.31;;;13.90;84.90
57606;BME280;43430;48.204;11.556;2022-09-03T07:37:18;95814.50;;;13.97;84.50
57606;BME280;43430;48.204;11.556;2022-09-03T07:39:43;95812.19;;;14.00;84.42
57606;BME280;43430;48.204;11.556;2022-09-03T07:42:10;95808.53;;;14.07;85.81
57606;BME280;43430;48.204;11.556;2022-09-03T07:44:36;95821.88;;;14.17;86.11
57606;BME280;43430;48.204;11.556;2022-09-03T07:47:01;95821.88;;;14.17;87.67
57606;BME280;43430;48.204;11.556;2022-09-03T07:49:27;95818.25;;;14.23;86.81
57606;BME280;43430;48.204;11.556;2022-09-03T07:51:52;95819.13;;;14.29;84.15
57606;BME280;43430;48.204;11.556;2022-09-03T07:54:18;95818.66;;;14.37;85.21
57606;BME280;43430;48.204;11.556;2022-09-03T07:56:45;95818.19;;;14.40;82.98
57606;BME280;43430;48.204;11.556;2022-09-03T07:59:10;95813.44;;;14.42;84.01
57606;BME280;43430;48.204;11.556;2022-09-03T08:01:36;95815.47;;;14.57;84.87
57606;BME280;43430;48.204;11.556;2022-09-03T08:04:02;95814.81;;;14.71;83.06
57606;BME280;43430;48.204;11.556;2022-09-03T08:06:30;95819.13;;;14.83;82.89
57606;BME280;43430;48.204;11.556;2022-09-03T08:09:00;95820.91;;;14.72;81.80
57606;BME280;43430;48.204;11.556;2022-09-03T08:11:27;95828.72;;;14.84;83.55
57606;BME280;43430;48.204;11.556;2022-09-03T08:13:57;95825.19;;;15.05;83.38
57606;BME280;43430;48.204;11.556;2022-09-03T08:16:32;95826.13;;;15.21;83.35
57606;BME280;43430;48.204;11.556;2022-09-03T08:18:58;95828.03;;;15.31;81.52
57606;BME280;43430;48.204;11.556;2022-09-03T08:21:24;95819.31;;;15.35;81.21
57606;BME280;43430;48.204;11.556;2022-09-03T08:23:51;95828.38;;;15.44;81.96
57606;BME280;43430;48.204;11.556;2022-09-03T08:26:19;95830.59;;;15.53;81.19
57606;BME280;43430;48.204;11.556;2022-09-03T08:28:45;95832.03;;;15.71;80.82
57606;BME280;43430;48.204;11.556;2022-09-03T08:31:18;95829.44;;;15.86;79.18
57606;BME280;43430;48.204;11.556;2022-09-03T08:33:47;95834.00;;;15.90;79.01
57606;BME280;43430;48.204;11.556;2022-09-03T08:36:15;95832.72;;;15.98;79.07
57606;BME280;43430;48.204;11.556;2022-09-03T08:38:43;95832.44;;;15.95;77.68
57606;BME280;43430;48.204;11.556;2022-09-03T08:46:18;95822.16;;;16.19;77.82
57606;BME280;43430;48.204;11.556;2022-09-03T08:48:44;95818.72;;;16.23;78.60
57606;BME280;43430;48.204;11.556;2022-09-03T08:51:12;95819.03;;;16.37;79.16
57606;BME280;43430;48.204;11.556;2022-09-03T08:53:50;95820.09;;;16.41;78.29
57606;BME280;43430;48.204;11.556;2022-09-03T08:56:30;95817.44;;;16.41;77.99
57606;BME280;43430;48.204;11.556;2022-09-03T08:58:56;95810.03;;;16.48;79.37
57606;BME280;43430;48.204;11.556;2022-09-03T09:18:10;95795.09;;;17.65;75.12
57606;BME280;43430;48.204;11.556;2022-09-03T09:20:53;95804.69;;;17.71;75.36
57606;BME280;43430;48.204;11.556;2022-09-03T09:23:31;95792.19;;;17.66;73.33
57606;BME280;43430;48.204;11.556;2022-09-03T09:26:00;95791.34;;;17.71;74.26
57606;BME280;43430;48.204;11.556;2022-09-03T09:28:33;95795.63;;;17.87;74.59
57606;BME280;43430;48.204;11.556;2022-09-03T09:31:01;95786.50;;;18.03;72.62
57606;BME280;43430;48.204;11.556;2022-09-03T09:33:29;95781.34;;;18.17;73.58
57606;BME280;43430;48.204;11.556;2022-09-03T09:35:58;95777.75;;;18.42;73.43
57606;BME280;43430;48.204;11.556;2022-09-03T09:38:32;95789.66;;;18.60;70.97
57606;BME280;43430;48.204;11.556;2022-09-03T09:41:17;95783.50;;;18.60;71.10
57606;BME280;43430;48.204;11.556;2022-09-03T09:43:44;95780.19;;;18.78;72.02
57606;BME280;43430;48.204;11.556;2022-09-03T09:47:00;95782.34;;;18.71;70.92
57606;BME280;43430;48.204;11.556;2022-09-03T09:49:00;95776.72;;;18.83;70.41
57606;BME280;43430;48.204;11.556;2022-09-03T09:51:28;95772.28;;;19.02;70.60
57606;BME280;43430;48.204;11.556;2022-09-03T09:54:15;95776.25;;;19.05;68.68
57606;BME280;43430;48.204;11.556;2022-09-03T09:56:43;95777.94;;;18.95;69.42
57606;BME280;43430;48.204;11.556;2022-09-03T09:59:10;95781.16;;;18.92;69.55
57606;BME280;43430;48.204;11.556;2022-09-03T10:01:42;95781.19;;;19.21;69.78
57606;BME280;43430;48.204;11.556;2022-09-03T10:06:34;95762.91;;;19.63;68.34
57606;BME280;43430;48.204;11.556;2022-09-03T10:09:23;95764.38;;;19.74;67.22
57606;BME280;43430;48.204;11.556;2022-09-03T10:14:40;95773.09;;;19.85;66.28
57606;BME280;43430;48.204;11.556;2022-09-03T10:17:18;95763.66;;;19.92;65.85
57606;BME280;43430;48.204;11.556;2022-09-03T10:19:59;95761.47;;;19.95;66.96
57606;BME280;43430;48.204;11.556;2022-09-03T10:22:53;95766.09;;;19.89;65.47
57606;BME280;43430;48.204;11.556;2022-09-03T10:25:20;95770.75;;;20.02;64.81
57606;BME280;43430;48.204;11.556;2022-09-03T10:27:50;95764.56;;;20.26;64.20
57606;BME280;43430;48.204;11.556;2022-09-03T10:30:18;95764.84;;;20.43;62.79
57606;BME280;43430;48.204;11.556;2022-09-03T10:32:55;95762.06;;;20.53;62.35
57606;BME280;43430;48.204;11.556;2022-09-03T10:35:39;95764.78;;;20.29;61.61
57606;BME280;43430;48.204;11.556;2022-09-03T10:38:29;95769.75;;;20.60;63.84
57606;BME280;43430;48.204;11.556;2022-09-03T10:46:28;95763.59;;;20.59;60.45
57606;BME280;43430;48.204;11.556;2022-09-03T10:51:34;95759.66;;;20.71;59.56
57606;BME280;43430;48.204;11.556;2022-09-03T10:57:07;95749.28;;;21.16;59.10
57606;BME280;43430;48.204;11.556;2022-09-03T11:00:11;95743.44;;;21.46;56.88
57606;BME280;43430;48.204;11.556;2022-09-03T11:05:34;95741.72;;;21.37;56.17
57606;BME280;43430;48.204;11.556;2022-09-03T11:08:17;95747.13;;;21.78;56.92
57606;BME280;43430;48.204;11.556;2022-09-03T11:10:50;95747.53;;;21.85;55.56
57606;BME280;43430;48.204;11.556;2022-09-03T11:13:23;95743.63;;;22.05;56.53
57606;BME280;43430;48.204;11.556;2022-09-03T11:16:13;95741.03;;;22.14;55.16
57606;BME280;43430;48.204;11.556;2022-09-03T11:18:43;95731.50;;;22.08;53.99
57606;BME280;43430;48.204;11.556;2022-09-03T11:21:12;95725.63;;;22.05;54.33
57606;BME280;43430;48.204;11.556;2022-09-03T11:23:47;95724.75;;;21.41;55.74
57606;BME280;43430;48.204;11.556;2022-09-03T11:26:18;95718.88;;;21.53;56.01
57606;BME280;43430;48.204;11.556;2022-09-03T11:34:25;95720.47;;;21.40;55.15
57606;BME280;43430;48.204;11.556;2022-09-03T11:37:02;95724.47;;;21.56;56.40
57606;BME280;43430;48.204;11.556;2022-09-03T11:41:58;95725.03;;;21.53;55.84
57606;BME280;43430;48.204;11.556;2022-09-03T11:44:38;95725.47;;;21.14;54.73
57606;BME280;43430;48.204;11.556;2022-09-03T11:47:40;95718.75;;;21.30;56.51
57606;BME280;43430;48.204;11.556;2022-09-03T11:52:46;95718.41;;;21.51;56.63
57606;BME280;43430;48.204;11.556;2022-09-03T11:55:23;95709.72;;;21.40;56.68
57606;BME280;43430;48.204;11.556;2022-09-03T11:57:49;95706.25;;;21.40;54.78
57606;BME280;43430;48.204;11.556;2022-09-03T12:00:17;95703.78;;;21.57;57.52
57606;BME280;43430;48.204;11.556;2022-09-03T12:03:00;95695.72;;;21.85;55.51
57606;BME280;43430;48.204;11.556;2022-09-03T12:05:41;95695.72;;;21.85;55.30
57606;BME280;43430;48.204;11.556;2022-09-03T12:11:03;95690.97;;;21.54;54.69
57606;BME280;43430;48.204;11.556;2022-09-03T12:19:13;95690.47;;;21.79;56.12
57606;BME280;43430;48.204;11.556;2022-09-03T12:21:47;95687.56;;;21.90;52.95
57606;BME280;43430;48.204;11.556;2022-09-03T12:24:13;95682.09;;;21.95;53.69
57606;BME280;43430;48.204;11.556;2022-09-03T12:26:41;95685.66;;;22.18;53.05
57606;BME280;43430;48.204;11.556;2022-09-03T12:29:22;95685.84;;;22.21;51.63
57606;BME280;43430;48.204;11.556;2022-09-03T12:31:48;95684.06;;;22.17;52.28
57606;BME280;43430;48.204;11.556;2022-09-03T12:34:19;95684.34;;;22.01;52.56
57606;BME280;43430;48.204;11.556;2022-09-03T12:36:53;95679.31;;;22.00;52.69
57606;BME280;43430;48.204;11.556;2022-09-03T12:42:06;95675.00;;;22.13;52.23
57606;BME280;43430;48.204;11.556;2022-09-03T12:44:37;95675.09;;;22.08;52.27
57606;BME280;43430;48.204;11.556;2022-09-03T12:47:10;95678.13;;;21.92;52.82
57606;BME280;43430;48.204;11.556;2022-09-03T12:49:41;95679.97;;;22.05;54.12
57606;BME280;43430;48.204;11.556;2022-09-03T12:54:50;95668.81;;;22.26;53.19
57606;BME280;43430;48.204;11.556;2022-09-03T12:57:21;95671.09;;;22.55;51.67
57606;BME280;43430;48.204;11.556;2022-09-03T12:59:49;95662.78;;;22.43;52.27
57606;BME280;43430;48.204;11.556;2022-09-03T13:02:25;95670.13;;;22.51;53.01
57606;BME280;43430;48.204;11.556;2022-09-03T13:04:52;95662.72;;;22.57;53.54
57606;BME280;43430;48.204;11.556;2022-09-03T13:07:20;95666.88;;;22.63;52.84
57606;BME280;43430;48.204;11.556;2022-09-03T13:09:48;95658.88;;;22.71;53.23
57606;BME280;43430;48.204;11.556;2022-09-03T13:12:32;95653.88;;;22.79;52.83
57606;BME280;43430;48.204;11.556;2022-09-03T13:15:05;95653.38;;;22.77;52.16
57606;BME280;43430;48.204;11.556;2022-09-03T13:29:28;95663.31;;;22.98;53.33
57606;BME280;43430;48.204;11.556;2022-09-03T13:34:49;95670.91;;;22.51;55.14
57606;BME280;43430;48.204;11.556;2022-09-03T13:37:26;95671.44;;;22.85;54.70
57606;BME280;43430;48.204;11.556;2022-09-03T13:39:59;95674.34;;;22.88;52.58
57606;BME280;43430;48.204;11.556;2022-09-03T13:42:35;95680.50;;;22.89;51.82
57606;BME280;43430;48.204;11.556;2022-09-03T13:45:13;95681.38;;;22.75;52.40
57606;BME280;43430;48.204;11.556;2022-09-03T13:48:20;95675.50;;;22.73;52.93
57606;BME280;43430;48.204;11.556;2022-09-03T13:51:15;95670.44;;;22.72;53.48
57606;BME280;43430;48.204;11.556;2022-09-03T13:53:58;95673.41;;;22.70;54.51
57606;BME280;43430;48.204;11.556;2022-09-03T13:59:39;95669.75;;;22.44;53.30
57606;BME280;43430;48.204;11.556;2022-09-03T14:02:17;95679.19;;;22.19;54.96
57606;BME280;43430;48.204;11.556;2022-09-03T14:05:03;95683.75;;;22.04;56.28
57606;BME280;43430;48.204;11.556;2022-09-03T14:21:32;95703.09;;;21.65;56.70
57606;BME280;43430;48.204;11.556;2022-09-03T14:24:07;95703.19;;;21.60;57.57
57606;BME280;43430;48.204;11.556;2022-09-03T14:26:36;95716.22;;;21.53;58.13
57606;BME280;43430;48.204;11.556;2022-09-03T14:31:32;95739.22;;;20.94;75.92
57606;BME280;43430;48.204;11.556;2022-09-03T14:40:12;95825.75;;;18.53;90.91
57606;BME280;43430;48.204;11.556;2022-09-03T14:48:52;95873.66;;;16.60;100.00
57606;BME280;43430;48.204;11.556;2022-09-03T14:57:43;95903.38;;;16.31;100.00
57606;BME280;43430;48.204;11.556;2022-09-03T15:11:02;95967.91;;;16.17;100.00
57606;BME280;43430;48.204;11.556;2022-09-03T15:13:32;95974.31;;;16.16;100.00
57606;BME280;43430;48.204;11.556;2022-09-03T15:16:19;95959.91;;;16.11;100.00
57606;BME280;43430;48.204;11.556;2022-09-03T15:22:01;95892.03;;;15.99;100.00
57606;BME280;43430;48.204;11.556;2022-09-03T15:30:44;95912.22;;;15.95;100.00
57606;BME280;43430;48.204;11.556;2022-09-03T15:33:29;95920.53;;;16.08;100.00
57606;BME280;43430;48.204;11.556;2022-09-03T15:36:02;95933.56;;;16.10;100.00
57606;BME280;43430;48.204;11.556;2022-09-03T15:40:59;95941.19;;;15.96;100.00
57606;BME280;43430;48.204;11.556;2022-09-03T15:43:31;95941.19;;;15.96;100.00
57606;BME280;43430;48.204;11.556;2022-09-03T15:45:58;95924.09;;;15.82;100.00
57606;BME280;43430;48.204;11.556;2022-09-03T15:48:50;95927.22;;;15.74;100.00
57606;BME280;43430;48.204;11.556;2022-09-03T15:51:29;95930.97;;;15.73;100.00
57606;BME280;43430;48.204;11.556;2022-09-03T15:54:11;95944.28;;;15.78;100.00
57606;BME280;43430;48.204;11.556;2022-09-03T15:56:51;95920.53;;;15.66;100.00
57606;BME280;43430;48.204;11.556;2022-09-03T16:02:19;95917.00;;;15.60;100.00
57606;BME280;43430;48.204;11.556;2022-09-03T16:15:27;95892.72;;;16.36;100.00
57606;BME280;43430;48.204;11.556;2022-09-03T16:23:10;95886.66;;;16.46;100.00
57606;BME280;43430;48.204;11.556;2022-09-03T16:25:54;95871.72;;;16.40;100.00
57606;BME280;43430;48.204;11.556;2022-09-03T16:28:42;95862.66;;;16.41;100.00
57606;BME280;43430;48.204;11.556;2022-09-03T16:34:04;95856.91;;;16.70;100.00
57606;BME280;43430;48.204;11.556;2022-09-03T16:42:28;95848.38;;;16.63;100.00
57606;BME280;43430;48.204;11.556;2022-09-03T16:45:10;95847.84;;;16.55;100.00
57606;BME280;43430;48.204;11.556;2022-09-03T16:50:38;95852.50;;;16.23;100.00
57606;BME280;43430;48.204;11.556;2022-09-03T16:54:14;95853.50;;;16.06;100.00